Time;durP1;ratioP1;P1;durP2;ratioP2;P2;SDS_P1;SDS_P2;PMS_P1;PMS_P2;Temp;Humidity;BMP_temperature;BMP_pressure;BME280_temperature;BME280_humidity;BME280_pressure;Samples;Min_cycle;Max_cycle;Signal;HPM_P1;HPM_P2
2022/11/07 00:01:50;;;;;;;18.73;10.95;;;8.20;99.90;;;6.82;100.00;100506.13;5033414;28;20029;-82
2022/11/07 00:04:36;;;;;;;16.38;9.43;;;8.20;99.90;;;6.81;100.00;100504.44;5014262;28;20024;-80
2022/11/07 00:07:03;;;;;;;14.00;9.23;;;8.20;99.90;;;6.86;100.00;100510.34;5023686;28;20033;-82
2022/11/07 00:09:29;;;;;;;15.23;8.90;;;8.20;99.90;;;6.87;100.00;100506.81;5030641;28;20132;-81
2022/11/07 00:11:56;;;;;;;15.55;9.15;;;8.30;99.90;;;6.92;100.00;100491.81;5030249;28;20497;-80
2022/11/07 00:14:21;;;;;;;17.40;8.95;;;8.30;99.90;;;6.94;99.28;100493.47;5034561;28;20071;-81
2022/11/07 00:16:54;;;;;;;18.05;9.95;;;8.30;99.90;;;6.98;99.58;100494.22;5042477;28;20160;-81
2022/11/07 00:19:21;;;;;;;17.08;10.05;;;8.40;99.90;;;7.03;99.00;100487.06;5029675;28;20033;-82
2022/11/07 00:21:48;;;;;;;17.13;10.07;;;8.40;99.90;;;7.07;99.05;100493.03;5026402;28;20039;-81
2022/11/07 00:24:24;;;;;;;15.07;9.18;;;8.40;99.90;;;7.12;98.24;100488.47;5038332;28;20084;-83
2022/11/07 00:26:49;;;;;;;20.88;9.82;;;8.40;99.90;;;7.13;97.82;100496.28;5030773;28;20044;-83
2022/11/07 00:31:55;;;;;;;18.00;10.20;;;8.50;99.90;;;7.19;97.58;100490.84;5023015;28;20053;-87
2022/11/07 00:34:38;;;;;;;17.17;10.18;;;8.50;99.90;;;7.22;97.60;100494.25;4994083;28;20112;-89
2022/11/07 00:37:10;;;;;;;12.77;8.85;;;8.60;99.90;;;7.23;97.35;100493.34;5010920;28;20201;-86
2022/11/07 00:39:36;;;;;;;14.20;9.32;;;8.60;99.90;;;7.26;97.04;100494.09;5006015;28;20029;-87
2022/11/07 00:42:04;;;;;;;18.73;10.18;;;8.60;99.90;;;7.28;96.76;100496.63;5003974;28;20060;-88
2022/11/07 00:44:37;;;;;;;17.27;9.45;;;8.60;99.90;;;7.32;96.41;100506.09;4990901;28;20034;-88
2022/11/07 00:47:03;;;;;;;17.95;10.45;;;;;;;7.33;96.97;100508.66;5007893;28;20126;-88
2022/11/07 00:49:29;;;;;;;15.10;9.80;;;8.70;99.90;;;7.36;96.62;100515.53;5005578;28;20120;-88
2022/11/07 00:51:55;;;;;;;16.92;9.55;;;8.70;99.90;;;7.36;96.91;100510.31;4991900;28;20201;-87
2022/11/07 00:54:38;;;;;;;25.23;11.30;;;8.70;99.90;;;7.40;96.80;100510.13;5009046;28;20502;-87
2022/11/07 00:57:14;;;;;;;18.80;10.48;;;8.70;99.90;;;7.38;96.73;100501.47;4998110;28;20045;-87
2022/11/07 00:59:40;;;;;;;20.60;12.20;;;;;;;7.38;97.65;100505.88;5005503;28;20065;-87
2022/11/07 01:02:06;;;;;;;16.20;10.77;;;8.70;99.90;;;7.37;97.89;100494.53;5003485;28;20025;-87
2022/11/07 01:07:25;;;;;;;23.80;12.32;;;8.70;99.90;;;7.37;98.63;100505.00;5019151;28;20075;-87
2022/11/07 01:09:51;;;;;;;23.83;13.57;;;8.70;99.90;;;7.33;98.99;100500.78;4985031;28;20053;-87
2022/11/07 01:12:25;;;;;;;21.85;12.80;;;8.70;99.90;;;7.34;99.16;100506.88;5003797;28;20029;-86
2022/11/07 01:14:53;;;;;;;19.05;12.10;;;8.70;99.90;;;7.33;99.29;100499.94;5004220;28;20052;-86
2022/11/07 01:17:27;;;;;;;25.88;11.20;;;8.60;99.90;;;7.32;99.80;100504.34;4985822;28;20397;-85
2022/11/07 01:19:53;;;;;;;21.73;11.80;;;8.70;99.90;;;7.33;99.90;100505.19;5003527;28;20522;-86
2022/11/07 01:22:18;;;;;;;20.00;12.00;;;8.70;99.90;;;7.32;100.00;100503.47;5002555;28;20034;-86
2022/11/07 01:24:46;;;;;;;17.83;10.38;;;8.60;99.90;;;7.32;100.00;100503.47;5002286;28;20037;-86
2022/11/07 01:27:16;;;;;;;24.33;12.07;;;8.60;99.90;;;7.30;99.83;100498.31;5002463;28;20111;-86
2022/11/07 01:29:42;;;;;;;17.80;10.90;;;8.60;99.90;;;7.27;100.00;100492.31;5005493;28;20623;-86
2022/11/07 01:32:08;;;;;;;21.98;11.10;;;8.60;99.90;;;7.27;100.00;100487.91;5002559;28;20038;-85
2022/11/07 01:34:34;;;;;;;15.55;10.32;;;8.60;99.90;;;7.28;100.00;100491.38;5005720;28;20144;-86
2022/11/07 01:37:02;;;;;;;21.23;11.05;;;8.60;99.90;;;7.29;100.00;100487.88;5008375;28;20037;-84
2022/11/07 01:39:33;;;;;;;17.63;10.80;;;8.60;99.90;;;7.27;100.00;100473.97;5006372;28;20026;-85
2022/11/07 01:41:58;;;;;;;17.50;10.63;;;8.60;99.90;;;7.26;100.00;100473.13;4988248;28;20044;-87
2022/11/07 01:44:24;;;;;;;17.42;11.15;;;8.60;99.90;;;7.27;100.00;100471.34;5005583;28;20109;-86
2022/11/07 01:46:54;;;;;;;19.58;10.18;;;8.60;99.90;;;7.31;100.00;100463.31;5024322;28;20033;-85
2022/11/07 01:49:34;;;;;;;16.70;10.48;;;8.60;99.90;;;7.31;100.00;100465.09;5024520;28;20048;-87
2022/11/07 01:52:24;;;;;;;19.67;11.00;;;8.60;99.90;;;7.30;100.00;100463.38;4991284;28;20612;-86
2022/11/07 01:55:18;;;;;;;16.52;10.13;;;8.60;99.90;;;7.32;100.00;100474.66;5006649;28;20037;-86
2022/11/07 01:58:16;;;;;;;16.30;10.00;;;8.60;99.90;;;7.30;100.00;100471.22;4980490;28;20038;-85
2022/11/07 02:00:42;;;;;;;13.63;9.20;;;8.60;99.90;;;7.29;100.00;100462.53;5009708;28;20065;-86
2022/11/07 02:03:18;;;;;;;15.10;9.30;;;8.60;99.90;;;7.31;100.00;100479.03;5006841;28;20105;-86
2022/11/07 02:06:09;;;;;;;20.23;10.77;;;8.60;99.90;;;7.31;100.00;100470.34;5025797;28;20049;-85
2022/11/07 02:08:41;;;;;;;14.30;9.70;;;8.60;99.90;;;7.31;99.93;100460.72;5006335;28;20021;-87
2022/11/07 02:11:11;;;;;;;16.70;9.80;;;8.60;99.90;;;7.34;100.00;100454.50;4990448;28;20037;-85
2022/11/07 02:13:44;;;;;;;15.98;9.40;;;8.60;99.90;;;7.33;99.93;100453.66;5004071;28;20022;-84
2022/11/07 02:16:10;;;;;;;16.58;9.57;;;8.70;99.90;;;7.35;99.82;100456.22;5006692;28;20117;-86
2022/11/07 02:18:49;;;;;;;18.70;10.23;;;8.70;99.90;;;7.37;100.00;100443.91;5007076;28;20413;-87
2022/11/07 02:21:28;;;;;;;16.73;9.98;;;8.60;99.90;;;7.36;100.00;100447.44;5006197;28;20183;-86
2022/11/07 02:24:08;;;;;;;14.70;9.43;;;8.70;99.90;;;7.36;99.51;100448.31;4988687;28;20037;-86
2022/11/07 02:26:36;;;;;;;16.02;9.75;;;8.70;99.90;;;7.36;100.00;100450.94;5025597;28;20030;-87
2022/11/07 02:29:13;;;;;;;14.30;9.23;;;8.70;99.90;;;7.40;99.64;100451.66;5005562;28;20037;-87
2022/11/07 02:31:41;;;;;;;12.82;8.60;;;8.70;99.90;;;7.44;99.30;100461.09;4988803;28;20065;-86
2022/11/07 02:34:16;;;;;;;14.93;9.40;;;8.70;99.90;;;7.45;99.73;100452.34;4991702;28;20029;-86
2022/11/07 02:36:42;;;;;;;12.85;8.65;;;8.70;99.90;;;7.45;99.26;100451.47;5003737;28;20066;-87
2022/11/07 02:39:08;;;;;;;12.48;8.85;;;8.70;99.90;;;7.48;99.33;100456.63;5009938;28;20036;-86
2022/11/07 02:41:34;;;;;;;15.45;9.18;;;;;;;7.48;98.51;100457.47;5005593;28;20029;-87
2022/11/07 02:44:13;;;;;;;10.75;8.15;;;;;;;7.51;98.65;100454.72;5004334;28;20037;-87
2022/11/07 02:46:48;;;;;;;12.00;8.27;;;8.80;99.90;;;7.53;98.48;100459.91;5004411;28;20092;-87
2022/11/07 02:49:17;;;;;;;11.02;8.02;;;8.80;99.90;;;7.49;98.07;100463.53;5005752;28;20037;-87
2022/11/07 02:51:52;;;;;;;12.75;8.02;;;8.80;99.90;;;7.51;97.79;100462.56;5005915;28;20033;-86
2022/11/07 02:54:18;;;;;;;11.32;8.45;;;8.80;99.90;;;7.54;97.74;100457.22;5008934;28;20045;-85
2022/11/07 02:56:44;;;;;;;13.25;7.95;;;8.80;99.90;;;7.53;97.75;100458.13;4997169;28;20022;-86
2022/11/07 02:59:09;;;;;;;12.07;7.43;;;8.80;99.90;;;7.50;97.49;100455.63;5005459;28;20033;-85
2022/11/07 03:01:42;;;;;;;10.00;7.60;;;8.80;99.90;;;7.51;97.71;100451.25;5002711;28;20291;-85
2022/11/07 03:04:08;;;;;;;13.60;8.15;;;8.80;99.90;;;7.51;97.32;100452.09;4985752;28;20022;-86
2022/11/07 03:06:34;;;;;;;14.65;8.82;;;8.80;99.90;;;7.53;97.62;100444.19;5003068;28;20486;-85
2022/11/07 03:09:00;;;;;;;19.92;9.30;;;8.90;99.90;;;7.55;97.14;100448.44;4987083;28;20033;-85
2022/11/07 03:11:26;;;;;;;11.63;7.63;;;8.80;99.90;;;7.51;97.10;100448.63;5005490;28;20042;-86
2022/11/07 03:13:59;;;;;;;13.00;7.93;;;8.80;99.90;;;7.53;97.62;100463.38;4995478;28;20337;-86
2022/11/07 03:16:25;;;;;;;18.50;9.10;;;;;;;7.55;97.29;100453.69;5023973;28;20037;-85
2022/11/07 03:18:50;;;;;;;12.48;7.55;;;8.80;99.90;;;7.55;97.15;100452.84;5038749;28;20030;-84
2022/11/07 03:21:16;;;;;;;16.80;8.05;;;8.90;99.90;;;7.59;97.36;100444.78;5019243;28;20057;-86
2022/11/07 03:23:50;;;;;;;18.38;9.77;;;;;;;7.63;96.96;100445.53;4989315;28;20030;-86
2022/11/07 03:26:16;;;;;;;11.73;7.30;;;8.90;99.90;;;7.65;97.10;100445.50;5027217;28;20084;-86
2022/11/07 03:28:42;;;;;;;12.20;7.88;;;9.00;99.90;;;7.69;97.26;100449.66;4989888;28;20568;-86
2022/11/07 03:31:07;;;;;;;14.63;8.23;;;9.00;99.90;;;7.71;96.78;100453.09;4987941;28;20124;-86
2022/11/07 03:33:33;;;;;;;11.93;7.82;;;9.00;99.90;;;7.72;96.62;100450.41;4978958;28;20789;-86
2022/11/07 03:36:08;;;;;;;12.18;7.70;;;9.00;99.90;;;7.69;96.36;100453.16;4971156;28;20022;-86
2022/11/07 03:38:34;;;;;;;11.00;7.75;;;9.00;99.90;;;7.69;96.61;100445.31;4972921;28;20603;-86
2022/11/07 03:40:59;;;;;;;12.57;7.20;;;9.00;99.90;;;7.73;96.27;100451.25;4974427;28;20109;-86
2022/11/07 03:43:25;;;;;;;14.77;8.65;;;9.00;99.90;;;7.75;95.95;100455.56;4970280;28;20414;-85
2022/11/07 03:46:00;;;;;;;12.13;8.10;;;9.00;99.90;;;7.78;96.13;100454.56;4970468;28;20030;-86
2022/11/07 03:48:25;;;;;;;23.33;12.52;;;9.10;99.90;;;7.81;95.82;100457.06;4971130;28;20076;-84
2022/11/07 03:50:51;;;;;;;9.57;7.30;;;9.10;99.90;;;7.80;95.88;100456.22;4966766;28;21233;-84
2022/11/07 03:53:17;;;;;;;12.52;8.00;;;9.10;99.90;;;7.83;96.19;100457.84;5001407;28;20026;-86
2022/11/07 03:55:50;;;;;;;19.20;10.50;;;9.10;99.90;;;7.86;95.41;100454.25;4983682;28;20055;-87
2022/11/07 03:58:16;;;;;;;35.42;15.52;;;9.10;99.90;;;7.87;95.64;100454.19;4986989;28;20532;-86
2022/11/07 04:00:41;;;;;;;15.00;9.57;;;9.10;99.90;;;7.86;96.17;100455.13;4981633;28;20023;-87
2022/11/07 04:03:07;;;;;;;19.25;10.65;;;9.20;99.90;;;7.90;95.93;100461.09;4982724;28;20625;-87
2022/11/07 04:05:33;;;;;;;22.15;11.20;;;9.20;99.90;;;7.91;95.56;100454.94;4986873;28;20106;-86
2022/11/07 04:07:59;;;;;;;28.48;16.48;;;9.20;99.90;;;7.94;95.10;100457.44;4984810;28;20077;-86
2022/11/07 04:10:33;;;;;;;27.42;14.32;;;9.20;99.90;;;7.88;95.67;100455.91;4985936;28;20521;-87
2022/11/07 04:18:36;;;;;;;10.30;6.88;;;9.10;99.90;;;7.77;95.29;100455.47;4988025;28;20073;-85
2022/11/07 04:21:01;;;;;;;9.98;6.90;;;9.10;99.90;;;7.74;95.57;100447.75;4972267;28;20102;-86
2022/11/07 04:23:36;;;;;;;9.65;7.07;;;9.10;99.90;;;7.71;95.71;100453.97;4969197;28;20054;-86
2022/11/07 04:28:46;;;;;;;14.80;7.25;;;9.10;99.90;;;7.70;96.17;100446.16;4989876;28;20458;-87
2022/11/07 04:31:20;;;;;;;10.65;7.03;;;9.00;99.90;;;7.69;96.29;100447.06;5003073;28;20112;-86
2022/11/07 04:33:45;;;;;;;10.93;6.95;;;9.10;99.90;;;7.69;95.98;100454.91;5007614;28;20330;-87
2022/11/07 04:36:11;;;;;;;13.00;6.88;;;9.00;99.90;;;7.70;96.60;100454.88;4996482;28;20026;-87
2022/11/07 04:38:37;;;;;;;9.73;7.28;;;9.10;99.90;;;7.75;96.51;100457.28;5013117;28;20018;-87
2022/11/07 04:41:29;;;;;;;14.05;7.60;;;9.10;99.90;;;7.80;95.89;100461.47;4996316;28;20124;-86
2022/11/07 04:43:55;;;;;;;10.98;6.68;;;9.10;99.90;;;7.85;96.13;100463.91;5014673;28;20095;-87
2022/11/07 04:46:22;;;;;;;9.80;7.07;;;;;;;7.88;95.94;100466.38;4995458;28;20105;-85
2022/11/07 04:48:55;;;;;;;13.05;7.25;;;9.20;99.90;;;7.88;95.82;100458.50;5013273;28;20036;-86
2022/11/07 04:51:21;;;;;;;10.15;7.05;;;9.20;99.90;;;7.91;96.09;100466.28;5002473;28;20026;-86
2022/11/07 04:53:47;;;;;;;11.93;7.38;;;9.30;99.90;;;7.94;95.78;100460.91;5011485;28;20083;-86
2022/11/07 04:56:13;;;;;;;10.57;7.35;;;9.30;99.90;;;7.94;95.55;100455.66;5012802;28;20104;-87
2022/11/07 04:58:48;;;;;;;10.82;7.00;;;9.30;99.90;;;7.96;95.59;100458.22;4993220;28;20128;-85
2022/11/07 05:01:14;;;;;;;9.80;6.70;;;9.30;99.90;;;7.93;95.33;100448.72;4997871;28;20099;-86
2022/11/07 05:03:40;;;;;;;9.90;7.45;;;9.30;99.90;;;7.94;95.42;100450.41;5003866;28;20176;-86
2022/11/07 05:06:05;;;;;;;11.48;7.32;;;9.30;99.90;;;7.95;95.16;100457.38;5016111;28;20063;-86
2022/11/07 05:08:36;;;;;;;14.90;7.03;;;9.30;99.90;;;7.96;95.45;100456.44;5016724;28;20030;-84
2022/11/07 05:11:05;;;;;;;11.63;6.65;;;9.30;99.90;;;7.98;95.30;100457.25;5016565;28;20101;-86
2022/11/07 05:13:30;;;;;;;11.00;6.97;;;9.30;99.90;;;8.01;95.52;100458.88;5015691;28;20075;-87
2022/11/07 05:15:57;;;;;;;12.20;7.20;;;;;;;8.03;95.61;100462.28;5016823;28;20533;-86
2022/11/07 05:18:46;;;;;;;12.43;7.00;;;;;;;8.04;95.70;100455.31;5033786;28;20029;-86
2022/11/07 05:21:12;;;;;;;11.25;7.43;;;;;;;8.04;94.98;100456.16;5033950;28;20030;-86
2022/11/07 05:23:38;;;;;;;9.73;6.75;;;9.40;99.90;;;8.06;95.52;100456.09;5020063;28;20033;-85
2022/11/07 05:26:04;;;;;;;11.48;7.10;;;9.40;99.90;;;8.06;95.28;100450.84;5017308;28;20102;-86
2022/11/07 05:28:38;;;;;;;10.43;6.20;;;9.40;99.90;;;8.09;94.77;100464.69;5009289;28;20379;-87
2022/11/07 05:31:05;;;;;;;11.27;7.13;;;9.50;99.90;;;8.13;95.12;100470.66;5010021;28;20032;-86
2022/11/07 05:33:31;;;;;;;8.82;6.03;;;9.50;99.90;;;8.13;95.06;100474.13;4991862;28;20022;-87
2022/11/07 05:36:12;;;;;;;13.43;6.50;;;9.50;99.90;;;8.15;95.06;100479.31;4991373;28;20112;-87
2022/11/07 05:39:01;;;;;;;10.68;6.50;;;9.50;99.90;;;8.16;95.37;100468.78;5007968;28;20034;-86
2022/11/07 05:41:28;;;;;;;15.65;6.00;;;;;;;8.18;95.57;100479.19;4996557;28;20516;-86
2022/11/07 05:43:56;;;;;;;10.98;6.70;;;9.50;99.90;;;8.18;95.27;100471.31;5005328;28;20029;-87
2022/11/07 05:46:22;;;;;;;9.40;6.13;;;;;;;8.20;95.20;100472.97;5008446;28;20140;-87
2022/11/07 05:48:56;;;;;;;10.70;6.55;;;9.50;99.90;;;8.23;95.06;100482.50;5006898;28;20581;-85
2022/11/07 05:51:40;;;;;;;9.52;6.45;;;9.50;99.90;;;8.16;95.16;100470.53;5025959;28;20374;-87
2022/11/07 05:54:06;;;;;;;11.20;7.20;;;9.50;99.90;;;8.16;95.57;100481.00;4989363;28;20060;-87
2022/11/07 05:56:42;;;;;;;10.80;6.88;;;;;;;8.15;95.23;100485.41;4995871;28;20120;-86
2022/11/07 05:59:17;;;;;;;8.80;6.35;;;;;;;8.13;95.62;100481.16;5008916;28;20382;-86
2022/11/07 06:01:43;;;;;;;9.70;6.78;;;9.40;99.90;;;8.11;95.42;100486.44;5002708;28;20026;-87
2022/11/07 06:04:08;;;;;;;11.02;6.75;;;9.40;99.90;;;8.11;95.96;100490.84;5006236;28;20727;-85
2022/11/07 06:06:34;;;;;;;10.18;6.68;;;9.50;99.90;;;8.14;96.27;100493.34;5009832;28;20045;-86
2022/11/07 06:09:00;;;;;;;10.63;6.78;;;9.50;99.90;;;8.14;95.96;100485.47;4994518;28;20026;-85
2022/11/07 06:11:26;;;;;;;10.63;6.28;;;9.50;99.90;;;8.13;96.00;100492.50;4993936;28;20032;-86
2022/11/07 06:14:00;;;;;;;11.10;6.55;;;9.50;99.90;;;8.15;96.14;100487.19;5004449;28;20045;-85
2022/11/07 06:16:26;;;;;;;8.98;6.07;;;9.50;99.90;;;8.17;95.61;100495.84;5009521;28;20041;-85
2022/11/07 06:18:55;;;;;;;9.25;6.38;;;;;;;8.20;96.07;100498.34;5008727;28;20021;-87
2022/11/07 06:21:43;;;;;;;;;;;;;;;;;;;;;
2022/11/07 06:24:20;;;;;;;;;;;;;;;;;;;;;
2022/11/07 06:26:46;;;;;;;13.25;6.40;;;9.50;99.90;;;8.26;95.74;100494.63;5013620;28;20520;-85
2022/11/07 06:29:14;;;;;;;8.90;6.35;;;9.50;99.90;;;8.27;95.65;100493.69;5007496;28;20132;-87
2022/11/07 06:31:42;;;;;;;16.05;6.15;;;9.60;99.90;;;8.30;95.79;100494.44;5002791;28;20037;-86
2022/11/07 06:34:16;;;;;;;12.95;6.50;;;;;;;8.31;96.24;100505.78;5024820;28;20057;-85
2022/11/07 06:36:45;;;;;;;10.40;6.28;;;9.60;99.90;;;8.31;96.05;100517.13;5040708;23;20045;-83
2022/11/07 06:39:10;;;;;;;8.68;5.97;;;9.60;99.90;;;8.37;96.22;100516.88;5020895;28;20029;-84
2022/11/07 06:41:47;;;;;;;11.55;6.30;;;9.70;99.90;;;8.35;95.83;100517.84;5015009;28;20117;-84
2022/11/07 06:44:18;;;;;;;10.95;5.78;;;9.70;99.90;;;8.37;95.74;100521.28;5031273;28;20110;-86
2022/11/07 06:46:47;;;;;;;13.00;6.32;;;9.70;99.90;;;8.41;95.87;100525.50;5013898;28;20045;-84
2022/11/07 06:49:14;;;;;;;10.20;5.72;;;9.70;99.90;;;8.40;95.86;100529.91;5021305;28;20025;-82
2022/11/07 06:51:40;;;;;;;7.50;5.47;;;9.80;99.90;;;8.43;95.61;100528.94;5033186;28;20035;-84
2022/11/07 06:54:06;;;;;;;11.85;5.35;;;9.80;99.90;;;8.48;95.66;100520.88;5011779;28;20021;-83
2022/11/07 06:56:41;;;;;;;9.15;5.63;;;9.80;99.90;;;8.53;95.84;100532.00;5016807;28;20017;-84
2022/11/07 06:59:07;;;;;;;7.90;5.07;;;9.80;99.90;;;8.55;95.99;100535.44;5015759;28;20033;-84
2022/11/07 07:01:33;;;;;;;10.75;5.35;;;9.90;99.90;;;8.56;95.88;100535.38;5015855;28;20400;-84
2022/11/07 07:03:59;;;;;;;8.07;5.47;;;9.90;99.90;;;8.59;95.47;100537.00;5019324;28;20029;-84
2022/11/07 07:06:28;;;;;;;13.23;5.10;;;9.90;99.90;;;8.61;95.84;100527.31;5017214;28;20036;-84
2022/11/07 07:08:57;;;;;;;8.00;5.28;;;9.90;99.90;;;8.65;95.71;100525.41;5016199;28;20486;-84
2022/11/07 07:11:25;;;;;;;8.43;4.72;;;10.00;99.90;;;8.68;95.40;100539.25;5014915;28;20041;-83
2022/11/07 07:13:56;;;;;;;9.77;5.22;;;10.00;99.90;;;8.68;95.81;100539.25;5024334;28;20037;-84
2022/11/07 07:16:24;;;;;;;13.18;4.47;;;10.00;99.90;;;8.75;95.41;100537.25;5034304;28;20374;-83
2022/11/07 07:18:50;;;;;;;9.00;4.45;;;10.10;99.90;;;8.82;95.14;100539.53;5015525;28;20033;-84
2022/11/07 07:21:16;;;;;;;12.18;5.00;;;10.10;99.90;;;8.83;94.89;100543.88;5018163;28;20374;-84
2022/11/07 07:23:42;;;;;;;7.30;4.60;;;10.10;99.90;;;8.86;94.99;100545.53;5014600;28;20087;-85
2022/11/07 07:26:15;;;;;;;9.10;4.82;;;10.20;99.90;;;8.88;94.93;100545.47;5015715;28;20029;-84
2022/11/07 07:28:42;;;;;;;7.80;4.40;;;10.20;99.90;;;8.91;94.58;100551.41;5016364;28;20060;-84
2022/11/07 07:31:34;;;;;;;9.20;4.57;;;10.20;99.90;;;8.94;94.70;100547.81;5014724;28;20472;-84
2022/11/07 07:33:59;;;;;;;9.32;4.60;;;10.30;99.90;;;8.98;94.72;100552.00;5007798;28;20076;-84
2022/11/07 07:36:25;;;;;;;9.98;4.18;;;10.30;99.90;;;9.02;94.58;100537.81;5016546;28;20038;-82
2022/11/07 07:38:52;;;;;;;17.85;4.75;;;10.30;99.90;;;9.06;94.27;100547.28;5015866;28;20059;-84
2022/11/07 07:41:18;;;;;;;9.40;4.50;;;10.40;99.90;;;9.12;94.00;100540.94;5016067;28;20045;-83
2022/11/07 07:43:49;;;;;;;11.48;4.15;;;10.40;99.90;;;9.14;93.81;100539.94;5035621;28;20044;-83
2022/11/07 07:46:21;;;;;;;7.30;3.85;;;10.40;99.90;;;9.22;93.62;100548.34;5029841;28;20029;-84
2022/11/07 07:48:46;;;;;;;10.82;3.92;;;10.50;99.90;;;9.26;93.60;100542.94;5015878;28;20022;-83
2022/11/07 07:51:17;;;;;;;8.45;3.42;;;10.50;99.90;;;9.27;92.95;100550.75;5031076;28;20474;-84
2022/11/07 07:53:46;;;;;;;10.05;4.15;;;10.50;99.90;;;9.28;92.87;100541.09;5013145;28;20026;-84
2022/11/07 07:56:14;;;;;;;8.98;3.67;;;10.60;99.90;;;9.31;93.26;100543.56;5012719;28;20026;-84
2022/11/07 07:58:47;;;;;;;7.97;3.40;;;10.60;99.90;;;9.31;93.13;100540.94;5011788;28;20037;-84
2022/11/07 08:01:15;;;;;;;8.43;3.80;;;10.60;99.90;;;9.36;92.73;100549.50;5014322;28;20033;-82
2022/11/07 08:03:53;;;;;;;9.70;3.72;;;10.60;99.90;;;9.37;92.91;100549.44;5014218;28;20025;-83
2022/11/07 08:06:19;;;;;;;6.88;3.83;;;10.70;99.90;;;9.39;92.71;100550.19;5012132;28;20044;-83
2022/11/07 08:08:45;;;;;;;7.05;3.47;;;10.70;99.90;;;9.44;92.74;100558.75;5015242;28;20021;-83
2022/11/07 08:11:17;;;;;;;7.38;3.20;;;10.70;99.90;;;9.49;92.31;100561.16;5014602;28;20040;-84
2022/11/07 08:13:45;;;;;;;9.77;3.67;;;10.80;99.90;;;9.55;92.23;100558.28;5010924;28;20052;-83
2022/11/07 08:16:11;;;;;;;7.95;3.30;;;10.80;99.90;;;9.61;92.38;100565.00;5015127;28;20025;-84
2022/11/07 08:18:38;;;;;;;11.68;3.42;;;10.90;99.90;;;9.65;92.20;100570.09;5020496;28;20021;-84
2022/11/07 08:21:12;;;;;;;7.45;3.60;;;10.90;99.90;;;9.73;91.69;100563.63;5014301;28;20025;-83
2022/11/07 08:23:38;;;;;;;4.95;2.88;;;11.00;99.90;;;9.80;91.28;100567.66;5032718;28;20025;-83
2022/11/07 08:26:04;;;;;;;7.05;3.00;;;11.10;99.90;;;9.84;91.10;100566.59;5013675;23;20038;-83
2022/11/07 08:28:37;;;;;;;5.55;3.13;;;11.10;99.90;;;9.90;90.63;100550.53;5010879;28;20081;-85
2022/11/07 08:31:08;;;;;;;10.98;3.33;;;11.20;99.90;;;9.98;90.17;100558.94;5008359;28;20022;-84
2022/11/07 08:33:35;;;;;;;8.07;3.20;;;11.30;99.90;;;10.13;88.97;100559.13;4987000;28;20117;-84
2022/11/07 08:36:11;;;;;;;8.40;3.40;;;11.40;99.90;;;10.32;88.85;100561.75;5001113;28;20125;-85
2022/11/07 08:38:36;;;;;;;9.77;2.90;;;11.40;99.90;;;10.43;88.15;100565.59;5012562;28;20021;-85
2022/11/07 08:41:09;;;;;;;6.53;3.08;;;11.60;99.90;;;10.57;87.62;100562.28;5029248;28;20484;-84
2022/11/07 08:43:35;;;;;;;11.65;3.42;;;11.70;99.90;;;10.72;86.82;100567.72;5024162;28;20013;-84
2022/11/07 08:46:00;;;;;;;7.97;2.60;;;11.70;99.90;;;10.69;86.19;100571.38;5008913;28;20080;-84
2022/11/07 08:48:26;;;;;;;8.93;3.30;;;11.80;99.90;;;10.68;85.93;100567.00;5020601;28;20023;-83
2022/11/07 08:50:57;;;;;;;7.60;3.00;;;11.80;99.90;;;10.57;86.59;100572.81;5000260;28;20026;-83
2022/11/07 08:53:26;;;;;;;6.93;2.67;;;11.70;99.90;;;10.50;86.73;100568.78;5002518;28;20076;-84
2022/11/07 08:55:58;;;;;;;5.10;2.60;;;11.70;99.90;;;10.45;87.29;100562.88;5032637;28;20026;-84
2022/11/07 08:58:33;;;;;;;5.28;2.28;;;11.60;99.90;;;10.48;87.39;100575.06;4986451;28;20030;-85
2022/11/07 09:01:02;;;;;;;7.88;3.03;;;11.70;99.90;;;10.53;87.86;100573.03;5027009;28;20117;-85
2022/11/07 09:03:37;;;;;;;8.23;2.78;;;11.70;99.90;;;10.54;88.11;100567.72;5001868;28;20035;-84
2022/11/07 09:06:04;;;;;;;15.95;2.97;;;11.70;99.90;;;10.59;87.51;100570.09;5028071;28;20022;-85
2022/11/07 09:08:34;;;;;;;6.68;2.25;;;11.80;99.90;;;10.63;87.54;100572.50;5025572;28;20045;-83
2022/11/07 09:11:04;;;;;;;9.13;2.53;;;11.80;99.90;;;10.71;87.37;100574.75;5013091;28;20108;-85
2022/11/07 09:13:34;;;;;;;7.50;2.45;;;11.90;99.90;;;10.76;87.45;100579.81;5028164;28;20485;-86
2022/11/07 09:16:16;;;;;;;8.73;2.53;;;11.90;99.90;;;10.87;87.66;100580.13;5025067;28;20060;-86
2022/11/07 09:18:52;;;;;;;6.82;2.10;;;12.00;99.90;;;10.94;87.06;100578.03;5009521;28;20088;-86
2022/11/07 09:21:19;;;;;;;8.05;2.35;;;;;;;11.03;86.62;100582.81;5010694;28;20457;-85
2022/11/07 09:23:58;;;;;;;5.45;2.50;;;12.20;99.90;;;11.04;86.12;100582.75;5012278;28;20419;-85
2022/11/07 09:26:38;;;;;;;8.93;2.88;;;;;;;11.10;86.18;100581.59;4999404;28;20185;-84
2022/11/07 09:29:13;;;;;;;7.60;2.13;;;12.30;99.90;;;11.14;85.50;100582.28;5026773;28;20038;-84
2022/11/07 09:31:39;;;;;;;8.50;2.13;;;;;;;11.24;85.59;100583.53;5010080;28;20095;-86
2022/11/07 09:34:20;;;;;;;11.27;2.50;;;12.50;99.90;;;11.37;85.41;100594.28;5025771;28;20037;-87
2022/11/07 09:36:46;;;;;;;7.43;2.00;;;12.60;99.90;;;11.51;84.99;100597.03;5033369;28;20104;-86
2022/11/07 09:39:24;;;;;;;10.15;2.63;;;12.80;99.90;;;11.65;84.48;100594.53;4989404;28;20517;-85
2022/11/07 09:42:06;;;;;;;14.50;2.63;;;12.90;99.90;;;11.75;83.68;100605.47;5000548;28;20421;-87
2022/11/07 09:44:58;;;;;;;8.05;2.17;;;13.00;99.90;;;11.88;82.96;100597.78;5028646;28;20108;-85
2022/11/07 09:47:46;;;;;;;9.13;2.05;;;13.10;99.90;;;11.87;82.65;100594.22;5010558;28;20089;-85
2022/11/07 09:50:48;;;;;;;6.40;2.30;;;13.20;99.90;;;11.98;81.97;100598.94;5002863;28;20042;-86
2022/11/07 09:53:57;;;;;;;7.10;2.00;;;13.20;99.90;;;12.00;81.99;100599.72;5018100;28;20045;-85
2022/11/07 09:56:31;;;;;;;7.93;1.95;;;13.20;99.90;;;12.03;82.18;100610.13;5024874;28;20057;-85
2022/11/07 09:59:42;;;;;;;8.45;2.20;;;13.30;99.90;;;12.05;81.69;100612.66;4996596;28;20518;-86
2022/11/07 10:02:36;;;;;;;6.25;2.00;;;13.30;99.90;;;12.06;81.78;100612.59;5012368;28;20029;-85
2022/11/07 10:05:12;;;;;;;6.75;1.63;;;13.30;99.90;;;12.07;81.86;100619.59;5005586;28;20122;-86
2022/11/07 10:07:52;;;;;;;8.70;2.10;;;13.20;99.90;;;12.10;81.52;100618.56;5011621;28;20490;-85
2022/11/07 10:10:46;;;;;;;6.53;2.10;;;13.30;99.90;;;12.00;81.09;100610.28;5021529;28;20486;-85
2022/11/07 10:13:40;;;;;;;6.13;1.83;;;13.30;99.90;;;12.05;81.02;100617.94;5004412;28;20046;-85
2022/11/07 10:16:29;;;;;;;6.80;2.10;;;13.30;99.90;;;12.07;81.59;100614.31;5031503;28;20577;-86
2022/11/07 10:19:49;;;;;;;9.05;2.15;;;13.30;99.90;;;12.13;81.81;100621.00;5027769;28;20077;-87
2022/11/07 10:22:48;;;;;;;12.45;2.25;;;13.30;99.90;;;12.16;81.29;100626.16;4999547;28;20449;-86
2022/11/07 10:25:43;;;;;;;11.73;2.35;;;13.30;99.90;;;12.17;81.10;100627.00;5008902;28;20045;-85
2022/11/07 10:28:27;;;;;;;9.52;2.80;;;13.40;99.90;;;12.10;81.40;100627.31;5007538;28;20030;-84
2022/11/07 10:31:09;;;;;;;10.40;2.83;;;13.30;99.90;;;12.18;81.75;100623.41;4975651;28;20034;-86
2022/11/07 10:34:13;;;;;;;5.38;2.00;;;13.30;99.90;;;12.12;81.37;100637.81;4984903;28;20394;-85
2022/11/07 10:36:47;;;;;;;8.70;2.00;;;13.40;99.90;;;12.20;81.60;100637.38;4983982;28;20030;-86
2022/11/07 10:40:07;;;;;;;10.75;3.13;;;13.40;99.90;;;12.22;81.14;100632.84;4986140;28;20056;-86
2022/11/07 10:42:34;;;;;;;6.15;1.85;;;13.40;99.90;;;12.40;80.96;100641.56;4991778;28;20045;-85
2022/11/07 10:45:26;;;;;;;9.25;2.75;;;13.50;99.90;;;12.43;80.65;100634.31;5000041;28;20037;-86
2022/11/07 10:48:06;;;;;;;6.45;2.13;;;13.60;99.90;;;12.56;80.30;100636.28;5003776;28;20042;-86
2022/11/07 10:50:37;;;;;;;8.43;2.20;;;13.70;99.90;;;12.65;80.35;100628.66;4984510;28;20069;-86
2022/11/07 10:53:17;;;;;;;10.18;2.10;;;;;;;12.75;79.61;100636.09;5002434;28;20030;-85
2022/11/07 10:55:57;;;;;;;9.32;2.00;;;13.80;99.90;;;12.83;79.69;100626.78;5004644;28;20030;-85
2022/11/07 10:58:47;;;;;;;12.65;1.90;;;13.90;99.90;;;12.93;79.08;100627.09;4985883;28;20370;-87